Airfield :
LOGIN :

Register | Disclaimer

   EN    FR    IT 

 










Legend :    VFR   Marginal VFR   IFR   Intensive IFR   Very Intensive IFR
Visi :
Ceiling :
>= 8 km
>= 3000ft
5 to 8 km
1000 to 3000 ft
1500m to 5 km
500 to 1000 ft
800 to 1500m
200 to 500 ft
< 800m
< 200 ft
Symbols :   Thunderstorms  Fog  Heavy snow  Heavy precipitations  Wind > 20 kt
SIGMETs :     Misc.  Thunderstorms  Icing  Turbulence  Mountain Waves  Volcanic Ashes







- Airport Elevation : 1504 ft
- IATA code : PNA


LEPP - Noain Pamplona

CURRENT METAR :
  • 272300Z AUTO 34013KT 300V010 8000 OVC018/// 14/12 Q1015

EXPIRED METARs :
  • 272230Z AUTO 33011KT 9000 BKN017/// OVC022/// 14/12 Q1015
  • 272200Z 34012KT 300V010 9999 FEW010 SCT016 BKN028 15/12 Q1016
  • 272130Z 33012KT 300V360 9999 FEW010 SCT016 BKN028 15/13 Q1016
  • 272100Z 33012KT 310V010 9999 SCT016 SCT028 15/13 Q1016
  • 272030Z 34012KT 300V010 9999 SCT016 SCT028 15/13 Q1015

TAF TAF LEPP
Valid from the 27 at 21:00 until the 28 at 21:00 UTC


272000Z 2721/2821 35014KT 9000 SCT015 SCT025 TX18/2814Z TN12/2803Z
TEMPO 2721/2821 BKN014
PROB40
TEMPO 2723/2821 4000 -SHRA BKN010 SCT025TCU
PROB40
TEMPO 2804/2809 VRB04KT 1400 RA BCFG BKN005
No reported NOTAMs for that airfield.
1 SIGMET reported for the Madrid FIR (LECM) :
 
Embedded thunderstorms
LECM SIGMET 10 VALID 272200/280100 LEVA
LECM MADRID FIR/UIR EMBD TS FCST WI N4246 W00047 - N4131 W00616 - N3801 W00554 - N4051 W00041 - N4234 W00007 - N4246 W00047 TOP FL380 STNR NC=



MET'MAP, your aeronautical weather chart ! - Copyright ORBIFLY December 2007 - Disclaimer

ORBIFLY MET'MAP TEAM :

Programming & Development : Alexandra Zaïnal
Concept & Development : Baudouin d'Aumeries
Co-Development & Prog : Marc-Olivier Méhu
Technical & hardware support : Manuel Goepfert

Contact : metmap@orbifly.com




SOURCES & CREDITS :

   NOAA